sensor_id;sensor_type;location;lat;lon;timestamp;P1;durP1;ratioP1;P2;durP2;ratioP2
12990;SDS011;6560;57.692;11.958;2023-01-16T00:00:41;5.83;;;1.67;;
12990;SDS011;6560;57.692;11.958;2023-01-16T00:03:07;9.87;;;2.27;;
12990;SDS011;6560;57.692;11.958;2023-01-16T00:05:33;5.27;;;1.67;;
12990;SDS011;6560;57.692;11.958;2023-01-16T00:07:58;10.37;;;2.43;;
12990;SDS011;6560;57.692;11.958;2023-01-16T00:10:24;11.93;;;2.70;;
12990;SDS011;6560;57.692;11.958;2023-01-16T00:12:49;15.13;;;3.13;;
12990;SDS011;6560;57.692;11.958;2023-01-16T00:15:15;11.23;;;3.23;;
12990;SDS011;6560;57.692;11.958;2023-01-16T00:17:40;13.50;;;3.30;;
12990;SDS011;6560;57.692;11.958;2023-01-16T00:20:06;10.20;;;3.03;;
12990;SDS011;6560;57.692;11.958;2023-01-16T00:22:32;16.07;;;3.67;;
12990;SDS011;6560;57.692;11.958;2023-01-16T00:24:58;13.40;;;3.07;;
12990;SDS011;6560;57.692;11.958;2023-01-16T00:27:23;16.07;;;2.47;;
12990;SDS011;6560;57.692;11.958;2023-01-16T00:29:49;16.53;;;3.93;;
12990;SDS011;6560;57.692;11.958;2023-01-16T00:32:14;12.47;;;3.00;;
12990;SDS011;6560;57.692;11.958;2023-01-16T00:34:40;9.70;;;3.23;;
12990;SDS011;6560;57.692;11.958;2023-01-16T00:37:06;10.97;;;2.13;;
12990;SDS011;6560;57.692;11.958;2023-01-16T00:39:39;12.10;;;3.03;;
12990;SDS011;6560;57.692;11.958;2023-01-16T00:42:05;12.90;;;3.40;;
12990;SDS011;6560;57.692;11.958;2023-01-16T00:44:31;8.93;;;2.13;;
12990;SDS011;6560;57.692;11.958;2023-01-16T00:46:56;13.70;;;2.03;;
12990;SDS011;6560;57.692;11.958;2023-01-16T00:49:22;13.20;;;3.47;;
12990;SDS011;6560;57.692;11.958;2023-01-16T00:51:47;9.57;;;2.67;;
12990;SDS011;6560;57.692;11.958;2023-01-16T00:54:13;14.10;;;3.13;;
12990;SDS011;6560;57.692;11.958;2023-01-16T00:56:38;5.67;;;2.77;;
12990;SDS011;6560;57.692;11.958;2023-01-16T00:59:04;6.23;;;2.17;;
12990;SDS011;6560;57.692;11.958;2023-01-16T01:01:29;13.53;;;3.07;;
12990;SDS011;6560;57.692;11.958;2023-01-16T01:03:55;10.63;;;2.13;;
12990;SDS011;6560;57.692;11.958;2023-01-16T01:06:23;5.60;;;2.43;;
12990;SDS011;6560;57.692;11.958;2023-01-16T01:08:49;16.23;;;2.57;;
12990;SDS011;6560;57.692;11.958;2023-01-16T01:11:15;11.43;;;2.27;;
12990;SDS011;6560;57.692;11.958;2023-01-16T01:13:40;7.97;;;2.00;;
12990;SDS011;6560;57.692;11.958;2023-01-16T01:16:07;8.47;;;2.13;;
12990;SDS011;6560;57.692;11.958;2023-01-16T01:18:33;9.73;;;2.57;;
12990;SDS011;6560;57.692;11.958;2023-01-16T01:20:58;11.77;;;2.80;;
12990;SDS011;6560;57.692;11.958;2023-01-16T01:23:24;8.07;;;2.00;;
12990;SDS011;6560;57.692;11.958;2023-01-16T01:25:50;10.67;;;3.23;;
12990;SDS011;6560;57.692;11.958;2023-01-16T01:28:17;9.97;;;2.40;;
12990;SDS011;6560;57.692;11.958;2023-01-16T01:30:43;13.23;;;2.10;;
12990;SDS011;6560;57.692;11.958;2023-01-16T01:33:09;12.33;;;2.77;;
12990;SDS011;6560;57.692;11.958;2023-01-16T01:35:35;6.57;;;2.03;;
12990;SDS011;6560;57.692;11.958;2023-01-16T01:38:01;18.13;;;3.73;;
12990;SDS011;6560;57.692;11.958;2023-01-16T01:40:26;10.60;;;3.10;;
12990;SDS011;6560;57.692;11.958;2023-01-16T01:42:52;5.43;;;2.10;;
12990;SDS011;6560;57.692;11.958;2023-01-16T01:45:26;9.90;;;1.77;;
12990;SDS011;6560;57.692;11.958;2023-01-16T01:48:03;13.07;;;2.20;;
12990;SDS011;6560;57.692;11.958;2023-01-16T01:53:11;12.73;;;2.50;;
12990;SDS011;6560;57.692;11.958;2023-01-16T01:55:42;7.77;;;1.90;;
12990;SDS011;6560;57.692;11.958;2023-01-16T01:58:11;15.13;;;2.50;;
12990;SDS011;6560;57.692;11.958;2023-01-16T02:00:44;12.40;;;2.80;;
12990;SDS011;6560;57.692;11.958;2023-01-16T02:03:13;12.10;;;2.20;;
12990;SDS011;6560;57.692;11.958;2023-01-16T02:05:44;11.90;;;3.50;;
12990;SDS011;6560;57.692;11.958;2023-01-16T02:08:14;6.17;;;2.07;;
12990;SDS011;6560;57.692;11.958;2023-01-16T02:10:43;16.77;;;3.93;;
12990;SDS011;6560;57.692;11.958;2023-01-16T02:13:14;17.37;;;2.83;;
12990;SDS011;6560;57.692;11.958;2023-01-16T02:15:40;10.80;;;2.47;;
12990;SDS011;6560;57.692;11.958;2023-01-16T02:18:26;8.43;;;1.90;;
12990;SDS011;6560;57.692;11.958;2023-01-16T02:23:51;11.00;;;2.10;;
12990;SDS011;6560;57.692;11.958;2023-01-16T02:27:18;12.97;;;2.93;;
12990;SDS011;6560;57.692;11.958;2023-01-16T02:40:15;10.63;;;2.17;;
12990;SDS011;6560;57.692;11.958;2023-01-16T02:42:44;11.70;;;2.53;;
12990;SDS011;6560;57.692;11.958;2023-01-16T02:50:56;19.90;;;3.67;;
12990;SDS011;6560;57.692;11.958;2023-01-16T02:55:59;15.33;;;3.60;;
12990;SDS011;6560;57.692;11.958;2023-01-16T02:58:33;15.57;;;3.80;;
12990;SDS011;6560;57.692;11.958;2023-01-16T03:01:03;9.77;;;2.77;;
12990;SDS011;6560;57.692;11.958;2023-01-16T03:03:37;19.83;;;3.77;;
12990;SDS011;6560;57.692;11.958;2023-01-16T03:11:46;14.60;;;3.53;;
12990;SDS011;6560;57.692;11.958;2023-01-16T03:14:31;16.47;;;3.70;;
12990;SDS011;6560;57.692;11.958;2023-01-16T03:17:12;15.83;;;3.90;;
12990;SDS011;6560;57.692;11.958;2023-01-16T03:19:49;12.73;;;3.93;;
12990;SDS011;6560;57.692;11.958;2023-01-16T03:25:25;19.30;;;3.57;;
12990;SDS011;6560;57.692;11.958;2023-01-16T03:36:40;21.13;;;3.67;;
12990;SDS011;6560;57.692;11.958;2023-01-16T03:39:11;24.90;;;3.97;;
12990;SDS011;6560;57.692;11.958;2023-01-16T03:41:39;12.57;;;3.97;;
12990;SDS011;6560;57.692;11.958;2023-01-16T03:44:09;11.13;;;3.40;;
12990;SDS011;6560;57.692;11.958;2023-01-16T03:46:43;20.50;;;5.27;;
12990;SDS011;6560;57.692;11.958;2023-01-16T03:49:13;16.63;;;4.10;;
12990;SDS011;6560;57.692;11.958;2023-01-16T03:51:44;18.13;;;3.47;;
12990;SDS011;6560;57.692;11.958;2023-01-16T03:59:38;18.53;;;3.87;;
12990;SDS011;6560;57.692;11.958;2023-01-16T04:04:48;23.10;;;4.50;;
12990;SDS011;6560;57.692;11.958;2023-01-16T04:10:12;16.47;;;4.50;;
12990;SDS011;6560;57.692;11.958;2023-01-16T04:12:53;20.70;;;4.80;;
12990;SDS011;6560;57.692;11.958;2023-01-16T04:15:23;12.80;;;3.43;;
12990;SDS011;6560;57.692;11.958;2023-01-16T04:17:50;19.43;;;3.80;;
12990;SDS011;6560;57.692;11.958;2023-01-16T04:20:16;17.37;;;3.63;;
12990;SDS011;6560;57.692;11.958;2023-01-16T04:22:46;19.17;;;3.33;;
12990;SDS011;6560;57.692;11.958;2023-01-16T04:25:14;14.53;;;3.73;;
12990;SDS011;6560;57.692;11.958;2023-01-16T04:27:39;11.57;;;3.17;;
12990;SDS011;6560;57.692;11.958;2023-01-16T04:30:05;25.53;;;4.40;;
12990;SDS011;6560;57.692;11.958;2023-01-16T04:32:32;17.90;;;4.30;;
12990;SDS011;6560;57.692;11.958;2023-01-16T04:34:57;16.23;;;3.27;;
12990;SDS011;6560;57.692;11.958;2023-01-16T04:37:23;20.30;;;4.20;;
12990;SDS011;6560;57.692;11.958;2023-01-16T04:39:49;14.37;;;3.63;;
12990;SDS011;6560;57.692;11.958;2023-01-16T04:42:14;10.33;;;3.27;;
12990;SDS011;6560;57.692;11.958;2023-01-16T04:44:40;21.60;;;3.70;;
12990;SDS011;6560;57.692;11.958;2023-01-16T04:47:06;14.83;;;4.17;;
12990;SDS011;6560;57.692;11.958;2023-01-16T04:49:31;18.27;;;3.37;;
12990;SDS011;6560;57.692;11.958;2023-01-16T04:51:57;15.17;;;3.77;;
12990;SDS011;6560;57.692;11.958;2023-01-16T04:54:22;21.63;;;3.87;;
12990;SDS011;6560;57.692;11.958;2023-01-16T04:56:48;12.37;;;3.93;;
12990;SDS011;6560;57.692;11.958;2023-01-16T04:59:13;16.70;;;3.57;;
12990;SDS011;6560;57.692;11.958;2023-01-16T05:01:40;18.40;;;3.63;;
12990;SDS011;6560;57.692;11.958;2023-01-16T05:04:07;14.43;;;3.40;;
12990;SDS011;6560;57.692;11.958;2023-01-16T05:06:34;27.53;;;4.13;;
12990;SDS011;6560;57.692;11.958;2023-01-16T05:09:00;28.23;;;4.00;;
12990;SDS011;6560;57.692;11.958;2023-01-16T05:11:27;21.20;;;5.27;;
12990;SDS011;6560;57.692;11.958;2023-01-16T05:13:53;15.20;;;3.50;;
12990;SDS011;6560;57.692;11.958;2023-01-16T05:16:19;24.43;;;3.53;;
12990;SDS011;6560;57.692;11.958;2023-01-16T05:18:44;20.23;;;4.07;;
12990;SDS011;6560;57.692;11.958;2023-01-16T05:21:10;22.53;;;4.30;;
12990;SDS011;6560;57.692;11.958;2023-01-16T05:23:35;16.83;;;3.50;;
12990;SDS011;6560;57.692;11.958;2023-01-16T05:26:02;14.03;;;5.67;;
12990;SDS011;6560;57.692;11.958;2023-01-16T05:28:28;16.00;;;4.03;;
12990;SDS011;6560;57.692;11.958;2023-01-16T05:30:54;15.67;;;3.70;;
12990;SDS011;6560;57.692;11.958;2023-01-16T05:33:20;17.07;;;3.70;;
12990;SDS011;6560;57.692;11.958;2023-01-16T05:35:46;15.20;;;3.60;;
12990;SDS011;6560;57.692;11.958;2023-01-16T05:38:12;17.10;;;3.60;;
12990;SDS011;6560;57.692;11.958;2023-01-16T05:40:38;16.93;;;3.50;;
12990;SDS011;6560;57.692;11.958;2023-01-16T05:43:04;14.67;;;3.07;;
12990;SDS011;6560;57.692;11.958;2023-01-16T05:45:29;17.80;;;3.83;;
12990;SDS011;6560;57.692;11.958;2023-01-16T05:47:55;10.20;;;3.13;;
12990;SDS011;6560;57.692;11.958;2023-01-16T05:50:21;19.50;;;3.73;;
12990;SDS011;6560;57.692;11.958;2023-01-16T05:52:46;15.00;;;3.33;;
12990;SDS011;6560;57.692;11.958;2023-01-16T05:55:12;26.53;;;4.67;;
12990;SDS011;6560;57.692;11.958;2023-01-16T05:57:37;21.13;;;3.60;;
12990;SDS011;6560;57.692;11.958;2023-01-16T06:00:03;9.80;;;3.50;;
12990;SDS011;6560;57.692;11.958;2023-01-16T06:02:30;22.60;;;4.27;;
12990;SDS011;6560;57.692;11.958;2023-01-16T06:04:56;20.67;;;3.60;;
12990;SDS011;6560;57.692;11.958;2023-01-16T06:07:22;19.17;;;4.13;;
12990;SDS011;6560;57.692;11.958;2023-01-16T06:09:47;16.90;;;3.23;;
12990;SDS011;6560;57.692;11.958;2023-01-16T06:12:16;23.47;;;3.83;;
12990;SDS011;6560;57.692;11.958;2023-01-16T06:14:44;21.03;;;3.43;;
12990;SDS011;6560;57.692;11.958;2023-01-16T06:17:10;21.33;;;3.37;;
12990;SDS011;6560;57.692;11.958;2023-01-16T06:19:36;24.27;;;4.10;;
12990;SDS011;6560;57.692;11.958;2023-01-16T06:22:01;21.97;;;3.60;;
12990;SDS011;6560;57.692;11.958;2023-01-16T06:24:27;25.03;;;3.97;;
12990;SDS011;6560;57.692;11.958;2023-01-16T06:26:52;13.70;;;3.63;;
12990;SDS011;6560;57.692;11.958;2023-01-16T06:29:18;16.50;;;3.53;;
12990;SDS011;6560;57.692;11.958;2023-01-16T06:31:43;12.50;;;2.90;;
12990;SDS011;6560;57.692;11.958;2023-01-16T06:34:09;33.30;;;4.90;;
12990;SDS011;6560;57.692;11.958;2023-01-16T06:36:34;24.33;;;3.90;;
12990;SDS011;6560;57.692;11.958;2023-01-16T06:39:00;12.67;;;2.50;;
12990;SDS011;6560;57.692;11.958;2023-01-16T06:41:26;14.60;;;3.20;;
12990;SDS011;6560;57.692;11.958;2023-01-16T06:43:51;15.33;;;3.40;;
12990;SDS011;6560;57.692;11.958;2023-01-16T06:46:17;21.03;;;3.37;;
12990;SDS011;6560;57.692;11.958;2023-01-16T06:48:42;17.03;;;3.20;;
12990;SDS011;6560;57.692;11.958;2023-01-16T06:51:09;17.60;;;3.17;;
12990;SDS011;6560;57.692;11.958;2023-01-16T06:53:35;32.70;;;3.43;;
12990;SDS011;6560;57.692;11.958;2023-01-16T06:56:01;16.27;;;2.83;;
12990;SDS011;6560;57.692;11.958;2023-01-16T06:58:27;13.73;;;2.90;;
12990;SDS011;6560;57.692;11.958;2023-01-16T07:00:52;13.37;;;3.13;;
12990;SDS011;6560;57.692;11.958;2023-01-16T07:03:19;14.53;;;2.83;;
12990;SDS011;6560;57.692;11.958;2023-01-16T07:05:46;17.10;;;3.20;;
12990;SDS011;6560;57.692;11.958;2023-01-16T07:08:12;22.17;;;3.87;;
12990;SDS011;6560;57.692;11.958;2023-01-16T07:10:38;23.07;;;5.50;;
12990;SDS011;6560;57.692;11.958;2023-01-16T07:13:04;11.27;;;3.37;;
12990;SDS011;6560;57.692;11.958;2023-01-16T07:15:37;15.53;;;3.43;;
12990;SDS011;6560;57.692;11.958;2023-01-16T07:18:21;26.20;;;4.93;;
12990;SDS011;6560;57.692;11.958;2023-01-16T07:21:07;14.30;;;4.40;;
12990;SDS011;6560;57.692;11.958;2023-01-16T07:24:00;15.17;;;3.07;;
12990;SDS011;6560;57.692;11.958;2023-01-16T07:26:31;18.20;;;3.07;;
12990;SDS011;6560;57.692;11.958;2023-01-16T07:28:58;17.00;;;3.30;;
12990;SDS011;6560;57.692;11.958;2023-01-16T07:31:24;22.53;;;2.70;;
12990;SDS011;6560;57.692;11.958;2023-01-16T07:33:51;20.10;;;3.50;;
12990;SDS011;6560;57.692;11.958;2023-01-16T07:36:16;17.07;;;2.80;;
12990;SDS011;6560;57.692;11.958;2023-01-16T07:38:42;15.70;;;2.73;;
12990;SDS011;6560;57.692;11.958;2023-01-16T07:41:07;14.43;;;2.37;;
12990;SDS011;6560;57.692;11.958;2023-01-16T07:43:33;12.00;;;2.40;;
12990;SDS011;6560;57.692;11.958;2023-01-16T07:45:59;12.00;;;2.00;;
12990;SDS011;6560;57.692;11.958;2023-01-16T07:48:24;10.33;;;3.03;;
12990;SDS011;6560;57.692;11.958;2023-01-16T07:50:53;10.63;;;2.70;;
12990;SDS011;6560;57.692;11.958;2023-01-16T07:53:21;9.93;;;2.03;;
12990;SDS011;6560;57.692;11.958;2023-01-16T07:55:49;8.00;;;1.83;;
12990;SDS011;6560;57.692;11.958;2023-01-16T07:58:15;10.30;;;2.03;;
12990;SDS011;6560;57.692;11.958;2023-01-16T08:00:41;6.83;;;3.47;;
12990;SDS011;6560;57.692;11.958;2023-01-16T08:03:07;11.57;;;2.40;;
12990;SDS011;6560;57.692;11.958;2023-01-16T08:05:32;9.57;;;1.83;;
12990;SDS011;6560;57.692;11.958;2023-01-16T08:07:57;15.03;;;2.97;;
12990;SDS011;6560;57.692;11.958;2023-01-16T08:10:23;7.87;;;2.03;;
12990;SDS011;6560;57.692;11.958;2023-01-16T08:12:49;8.97;;;1.80;;
12990;SDS011;6560;57.692;11.958;2023-01-16T08:15:14;6.90;;;1.80;;
12990;SDS011;6560;57.692;11.958;2023-01-16T08:17:40;12.67;;;2.47;;
12990;SDS011;6560;57.692;11.958;2023-01-16T08:20:06;7.43;;;2.13;;
12990;SDS011;6560;57.692;11.958;2023-01-16T08:22:33;11.40;;;2.10;;
12990;SDS011;6560;57.692;11.958;2023-01-16T08:24:58;7.57;;;2.10;;
12990;SDS011;6560;57.692;11.958;2023-01-16T08:27:24;9.97;;;2.33;;
12990;SDS011;6560;57.692;11.958;2023-01-16T08:29:49;11.17;;;2.50;;
12990;SDS011;6560;57.692;11.958;2023-01-16T08:32:15;14.97;;;3.43;;
12990;SDS011;6560;57.692;11.958;2023-01-16T08:34:41;18.03;;;2.60;;
12990;SDS011;6560;57.692;11.958;2023-01-16T08:37:07;16.83;;;4.03;;
12990;SDS011;6560;57.692;11.958;2023-01-16T08:39:35;13.93;;;3.20;;
12990;SDS011;6560;57.692;11.958;2023-01-16T08:42:01;14.07;;;2.80;;
12990;SDS011;6560;57.692;11.958;2023-01-16T08:44:45;19.30;;;3.73;;
12990;SDS011;6560;57.692;11.958;2023-01-16T08:47:29;15.20;;;3.10;;
12990;SDS011;6560;57.692;11.958;2023-01-16T08:50:15;17.57;;;2.87;;
12990;SDS011;6560;57.692;11.958;2023-01-16T08:53:03;13.60;;;2.60;;
12990;SDS011;6560;57.692;11.958;2023-01-16T08:55:29;16.73;;;3.30;;
12990;SDS011;6560;57.692;11.958;2023-01-16T08:57:55;15.60;;;3.47;;
12990;SDS011;6560;57.692;11.958;2023-01-16T09:00:24;16.33;;;3.47;;
12990;SDS011;6560;57.692;11.958;2023-01-16T09:02:50;10.80;;;2.80;;
12990;SDS011;6560;57.692;11.958;2023-01-16T09:05:15;15.80;;;2.83;;
12990;SDS011;6560;57.692;11.958;2023-01-16T09:07:41;17.10;;;3.17;;
12990;SDS011;6560;57.692;11.958;2023-01-16T09:10:14;10.17;;;2.20;;
12990;SDS011;6560;57.692;11.958;2023-01-16T09:12:40;11.97;;;2.97;;
12990;SDS011;6560;57.692;11.958;2023-01-16T09:15:24;10.30;;;2.37;;
12990;SDS011;6560;57.692;11.958;2023-01-16T09:17:50;18.60;;;3.30;;
12990;SDS011;6560;57.692;11.958;2023-01-16T09:20:16;12.63;;;2.63;;
12990;SDS011;6560;57.692;11.958;2023-01-16T09:22:48;8.93;;;2.50;;
12990;SDS011;6560;57.692;11.958;2023-01-16T09:25:20;13.17;;;2.53;;
12990;SDS011;6560;57.692;11.958;2023-01-16T09:27:45;7.93;;;2.20;;
12990;SDS011;6560;57.692;11.958;2023-01-16T09:30:11;12.40;;;2.60;;
12990;SDS011;6560;57.692;11.958;2023-01-16T09:32:37;13.07;;;2.97;;
12990;SDS011;6560;57.692;11.958;2023-01-16T09:35:03;13.60;;;2.70;;
12990;SDS011;6560;57.692;11.958;2023-01-16T09:37:28;9.30;;;2.10;;
12990;SDS011;6560;57.692;11.958;2023-01-16T09:39:54;9.30;;;2.67;;
12990;SDS011;6560;57.692;11.958;2023-01-16T09:45:36;11.57;;;3.60;;
12990;SDS011;6560;57.692;11.958;2023-01-16T09:48:07;9.97;;;3.30;;
12990;SDS011;6560;57.692;11.958;2023-01-16T09:50:44;8.50;;;2.17;;
12990;SDS011;6560;57.692;11.958;2023-01-16T09:53:18;8.53;;;2.27;;
12990;SDS011;6560;57.692;11.958;2023-01-16T09:56:07;12.13;;;2.87;;
12990;SDS011;6560;57.692;11.958;2023-01-16T09:59:36;12.47;;;2.60;;
12990;SDS011;6560;57.692;11.958;2023-01-16T10:01:52;11.10;;;2.43;;
12990;SDS011;6560;57.692;11.958;2023-01-16T10:04:23;15.17;;;3.17;;
12990;SDS011;6560;57.692;11.958;2023-01-16T10:12:07;8.97;;;1.93;;
12990;SDS011;6560;57.692;11.958;2023-01-16T10:17:51;12.63;;;3.33;;
12990;SDS011;6560;57.692;11.958;2023-01-16T10:22:50;12.03;;;3.10;;
12990;SDS011;6560;57.692;11.958;2023-01-16T10:30:57;14.30;;;3.20;;
12990;SDS011;6560;57.692;11.958;2023-01-16T10:36:09;18.20;;;4.10;;
12990;SDS011;6560;57.692;11.958;2023-01-16T10:38:39;14.33;;;3.70;;
12990;SDS011;6560;57.692;11.958;2023-01-16T10:41:12;12.37;;;3.67;;
12990;SDS011;6560;57.692;11.958;2023-01-16T10:44:09;13.23;;;2.90;;
12990;SDS011;6560;57.692;11.958;2023-01-16T10:47:08;7.90;;;3.27;;
12990;SDS011;6560;57.692;11.958;2023-01-16T10:49:55;16.60;;;2.80;;
12990;SDS011;6560;57.692;11.958;2023-01-16T10:52:20;12.40;;;2.90;;
12990;SDS011;6560;57.692;11.958;2023-01-16T10:54:47;9.93;;;2.90;;
12990;SDS011;6560;57.692;11.958;2023-01-16T10:57:16;15.97;;;4.50;;
12990;SDS011;6560;57.692;11.958;2023-01-16T10:59:46;17.60;;;3.97;;
12990;SDS011;6560;57.692;11.958;2023-01-16T11:02:16;9.37;;;2.77;;
12990;SDS011;6560;57.692;11.958;2023-01-16T11:04:52;17.27;;;3.63;;
12990;SDS011;6560;57.692;11.958;2023-01-16T11:07:19;10.37;;;2.90;;
12990;SDS011;6560;57.692;11.958;2023-01-16T11:09:46;12.07;;;3.47;;
12990;SDS011;6560;57.692;11.958;2023-01-16T11:12:23;12.23;;;3.33;;
12990;SDS011;6560;57.692;11.958;2023-01-16T11:15:18;17.03;;;2.93;;
12990;SDS011;6560;57.692;11.958;2023-01-16T11:21:15;13.07;;;3.07;;
12990;SDS011;6560;57.692;11.958;2023-01-16T11:23:44;16.00;;;3.80;;
12990;SDS011;6560;57.692;11.958;2023-01-16T11:26:14;20.23;;;3.50;;
12990;SDS011;6560;57.692;11.958;2023-01-16T11:28:41;19.47;;;3.53;;
12990;SDS011;6560;57.692;11.958;2023-01-16T11:31:21;13.03;;;3.10;;
12990;SDS011;6560;57.692;11.958;2023-01-16T11:33:51;15.50;;;2.77;;
12990;SDS011;6560;57.692;11.958;2023-01-16T11:36:31;12.73;;;2.93;;
12990;SDS011;6560;57.692;11.958;2023-01-16T11:38:59;10.97;;;3.00;;
12990;SDS011;6560;57.692;11.958;2023-01-16T11:41:35;16.73;;;2.63;;
12990;SDS011;6560;57.692;11.958;2023-01-16T11:47:10;8.60;;;2.30;;
12990;SDS011;6560;57.692;11.958;2023-01-16T11:49:39;19.47;;;4.20;;
12990;SDS011;6560;57.692;11.958;2023-01-16T11:52:16;11.20;;;3.40;;
12990;SDS011;6560;57.692;11.958;2023-01-16T11:54:55;12.83;;;3.40;;
12990;SDS011;6560;57.692;11.958;2023-01-16T12:05:35;16.33;;;3.23;;
12990;SDS011;6560;57.692;11.958;2023-01-16T12:11:22;16.50;;;3.17;;
12990;SDS011;6560;57.692;11.958;2023-01-16T12:14:10;15.90;;;3.13;;
12990;SDS011;6560;57.692;11.958;2023-01-16T12:22:56;10.83;;;3.17;;
12990;SDS011;6560;57.692;11.958;2023-01-16T12:25:55;17.33;;;2.77;;
12990;SDS011;6560;57.692;11.958;2023-01-16T12:34:40;14.53;;;3.80;;
12990;SDS011;6560;57.692;11.958;2023-01-16T12:54:32;9.60;;;2.50;;
12990;SDS011;6560;57.692;11.958;2023-01-16T12:59:30;5.73;;;1.80;;
12990;SDS011;6560;57.692;11.958;2023-01-16T13:02:24;6.40;;;2.50;;
12990;SDS011;6560;57.692;11.958;2023-01-16T13:05:01;7.17;;;1.93;;
12990;SDS011;6560;57.692;11.958;2023-01-16T13:07:30;11.67;;;1.87;;
12990;SDS011;6560;57.692;11.958;2023-01-16T13:12:53;6.13;;;1.43;;
12990;SDS011;6560;57.692;11.958;2023-01-16T13:15:40;3.80;;;1.60;;
12990;SDS011;6560;57.692;11.958;2023-01-16T13:20:49;5.57;;;1.53;;
12990;SDS011;6560;57.692;11.958;2023-01-16T13:23:20;2.90;;;0.90;;
12990;SDS011;6560;57.692;11.958;2023-01-16T13:25:56;4.90;;;1.07;;
12990;SDS011;6560;57.692;11.958;2023-01-16T13:31:17;13.77;;;1.53;;
12990;SDS011;6560;57.692;11.958;2023-01-16T13:33:55;5.80;;;1.57;;
12990;SDS011;6560;57.692;11.958;2023-01-16T13:42:06;1.23;;;0.47;;
12990;SDS011;6560;57.692;11.958;2023-01-16T13:44:35;3.27;;;1.30;;
12990;SDS011;6560;57.692;11.958;2023-01-16T13:47:26;6.07;;;1.53;;
12990;SDS011;6560;57.692;11.958;2023-01-16T13:50:28;3.53;;;1.17;;
12990;SDS011;6560;57.692;11.958;2023-01-16T13:52:56;2.70;;;0.93;;
12990;SDS011;6560;57.692;11.958;2023-01-16T13:55:31;4.57;;;1.23;;
12990;SDS011;6560;57.692;11.958;2023-01-16T14:00:58;5.83;;;1.33;;
12990;SDS011;6560;57.692;11.958;2023-01-16T14:03:29;6.03;;;1.23;;
12990;SDS011;6560;57.692;11.958;2023-01-16T14:11:28;5.90;;;1.57;;
12990;SDS011;6560;57.692;11.958;2023-01-16T14:17:05;2.30;;;1.40;;
12990;SDS011;6560;57.692;11.958;2023-01-16T14:19:38;3.83;;;1.13;;
12990;SDS011;6560;57.692;11.958;2023-01-16T14:22:17;4.70;;;1.37;;
12990;SDS011;6560;57.692;11.958;2023-01-16T14:24:45;7.20;;;1.90;;
12990;SDS011;6560;57.692;11.958;2023-01-16T14:27:14;4.63;;;2.17;;
12990;SDS011;6560;57.692;11.958;2023-01-16T14:29:47;5.47;;;2.10;;
12990;SDS011;6560;57.692;11.958;2023-01-16T14:32:24;5.27;;;2.40;;
12990;SDS011;6560;57.692;11.958;2023-01-16T14:37:24;6.20;;;2.13;;
12990;SDS011;6560;57.692;11.958;2023-01-16T14:42:36;7.10;;;1.90;;
12990;SDS011;6560;57.692;11.958;2023-01-16T14:45:25;4.77;;;2.03;;
12990;SDS011;6560;57.692;11.958;2023-01-16T14:48:29;4.37;;;1.77;;
12990;SDS011;6560;57.692;11.958;2023-01-16T14:51:28;5.57;;;1.90;;
12990;SDS011;6560;57.692;11.958;2023-01-16T14:57:12;8.50;;;2.13;;
12990;SDS011;6560;57.692;11.958;2023-01-16T15:00:26;4.27;;;1.83;;
12990;SDS011;6560;57.692;11.958;2023-01-16T15:05:34;3.03;;;1.83;;
12990;SDS011;6560;57.692;11.958;2023-01-16T15:08:20;8.70;;;2.20;;
12990;SDS011;6560;57.692;11.958;2023-01-16T15:10:53;5.60;;;1.90;;
12990;SDS011;6560;57.692;11.958;2023-01-16T15:15:51;11.93;;;2.70;;
12990;SDS011;6560;57.692;11.958;2023-01-16T15:18:31;8.37;;;2.43;;
12990;SDS011;6560;57.692;11.958;2023-01-16T15:21:16;8.80;;;2.57;;
12990;SDS011;6560;57.692;11.958;2023-01-16T15:24:02;8.43;;;2.80;;
12990;SDS011;6560;57.692;11.958;2023-01-16T15:31:36;7.20;;;2.63;;
12990;SDS011;6560;57.692;11.958;2023-01-16T15:34:05;9.03;;;3.40;;
12990;SDS011;6560;57.692;11.958;2023-01-16T15:36:47;7.93;;;3.07;;
12990;SDS011;6560;57.692;11.958;2023-01-16T15:39:18;9.43;;;3.37;;
12990;SDS011;6560;57.692;11.958;2023-01-16T15:41:54;5.80;;;2.73;;
12990;SDS011;6560;57.692;11.958;2023-01-16T15:44:43;7.03;;;3.20;;
12990;SDS011;6560;57.692;11.958;2023-01-16T15:52:49;8.27;;;3.57;;
12990;SDS011;6560;57.692;11.958;2023-01-16T15:55:17;7.27;;;3.23;;
12990;SDS011;6560;57.692;11.958;2023-01-16T15:58:11;11.63;;;3.87;;
12990;SDS011;6560;57.692;11.958;2023-01-16T16:00:40;7.40;;;3.30;;
12990;SDS011;6560;57.692;11.958;2023-01-16T16:05:35;6.27;;;3.30;;
12990;SDS011;6560;57.692;11.958;2023-01-16T16:08:01;7.53;;;3.43;;
12990;SDS011;6560;57.692;11.958;2023-01-16T16:10:28;14.97;;;4.40;;
12990;SDS011;6560;57.692;11.958;2023-01-16T16:13:16;4.33;;;3.00;;
12990;SDS011;6560;57.692;11.958;2023-01-16T16:15:56;9.80;;;3.40;;
12990;SDS011;6560;57.692;11.958;2023-01-16T16:18:56;9.53;;;3.17;;
12990;SDS011;6560;57.692;11.958;2023-01-16T16:21:27;4.63;;;2.93;;
12990;SDS011;6560;57.692;11.958;2023-01-16T16:24:02;7.27;;;3.13;;
12990;SDS011;6560;57.692;11.958;2023-01-16T16:26:30;7.67;;;3.50;;
12990;SDS011;6560;57.692;11.958;2023-01-16T16:29:00;8.10;;;3.13;;
12990;SDS011;6560;57.692;11.958;2023-01-16T16:31:28;6.50;;;2.90;;
12990;SDS011;6560;57.692;11.958;2023-01-16T16:33:58;5.40;;;2.73;;
12990;SDS011;6560;57.692;11.958;2023-01-16T16:36:38;5.27;;;2.80;;
12990;SDS011;6560;57.692;11.958;2023-01-16T16:39:27;6.10;;;2.80;;
12990;SDS011;6560;57.692;11.958;2023-01-16T16:42:01;4.80;;;2.50;;
12990;SDS011;6560;57.692;11.958;2023-01-16T16:47:36;7.60;;;2.67;;
12990;SDS011;6560;57.692;11.958;2023-01-16T16:53:05;12.27;;;2.70;;
12990;SDS011;6560;57.692;11.958;2023-01-16T16:55:46;6.30;;;2.33;;
12990;SDS011;6560;57.692;11.958;2023-01-16T16:58:19;6.13;;;2.87;;
12990;SDS011;6560;57.692;11.958;2023-01-16T17:00:47;8.40;;;2.97;;
12990;SDS011;6560;57.692;11.958;2023-01-16T17:03:17;7.23;;;2.97;;
12990;SDS011;6560;57.692;11.958;2023-01-16T17:05:44;4.73;;;2.97;;
12990;SDS011;6560;57.692;11.958;2023-01-16T17:08:15;9.17;;;2.50;;
12990;SDS011;6560;57.692;11.958;2023-01-16T17:10:45;3.13;;;2.40;;
12990;SDS011;6560;57.692;11.958;2023-01-16T17:13:19;4.00;;;2.57;;
12990;SDS011;6560;57.692;11.958;2023-01-16T17:15:57;10.70;;;2.50;;
12990;SDS011;6560;57.692;11.958;2023-01-16T18:27:07;4.57;;;2.10;;
12990;SDS011;6560;57.692;11.958;2023-01-16T18:29:34;8.13;;;3.07;;
12990;SDS011;6560;57.692;11.958;2023-01-16T18:32:00;4.40;;;2.00;;
12990;SDS011;6560;57.692;11.958;2023-01-16T18:34:48;8.37;;;2.60;;
12990;SDS011;6560;57.692;11.958;2023-01-16T18:37:16;5.53;;;2.33;;
12990;SDS011;6560;57.692;11.958;2023-01-16T18:39:42;3.23;;;2.00;;
12990;SDS011;6560;57.692;11.958;2023-01-16T18:42:27;4.17;;;2.23;;
12990;SDS011;6560;57.692;11.958;2023-01-16T18:45:12;6.93;;;1.70;;
12990;SDS011;6560;57.692;11.958;2023-01-16T18:47:57;4.13;;;2.20;;
12990;SDS011;6560;57.692;11.958;2023-01-16T18:50:40;3.90;;;2.00;;
12990;SDS011;6560;57.692;11.958;2023-01-16T18:53:35;6.17;;;2.27;;
12990;SDS011;6560;57.692;11.958;2023-01-16T18:56:27;5.90;;;1.80;;
12990;SDS011;6560;57.692;11.958;2023-01-16T18:59:15;1.90;;;1.60;;
12990;SDS011;6560;57.692;11.958;2023-01-16T19:02:06;3.30;;;1.93;;
12990;SDS011;6560;57.692;11.958;2023-01-16T19:04:53;3.63;;;1.80;;
12990;SDS011;6560;57.692;11.958;2023-01-16T19:07:22;4.50;;;1.90;;
12990;SDS011;6560;57.692;11.958;2023-01-16T19:09:52;2.80;;;1.87;;
12990;SDS011;6560;57.692;11.958;2023-01-16T19:12:22;3.60;;;1.80;;
12990;SDS011;6560;57.692;11.958;2023-01-16T19:14:50;3.50;;;2.10;;